Lonoke, AR (72086)

12:10 PM CST on February 12, 2016 (GMT -0600)
K5WC Furlow | | Change Station
CLOSE
Current Station
Personal Weather Station
Location: Lonoke, AR
Elevation: 262 ft
Nearby Weather Stations

Elev 262 ft 34.84 °N, 91.98 °W | Updated 23 seconds ago

Clear
Clear
56.8 °F
Feels Like 56.8 °F
N
2.9
Wind Variable Wind from ENE
Gusts 4.9 mph

Today
High -- | Low -- °F
--% Chance of Precip.
Yesterday
High -- | Low -- °F
Precip. -- in
Pressure 30.28 in
Visibility 10.0 miles
Clouds Clear
Dew Point 30 °F
Humidity 36%
Rainfall 0.00 in
Snow Depth Not available.
6:57 AM 5:47 PM
Waxing Crescent, 22% visible
METAR KLRF 121658Z AUTO 33009KT 10SM CLR 12/M02 A3027 RMK AO2 SLP254 T01171020
Pressure 30.28 in
Visibility 10.0 miles
Clouds Clear
Dew Point 30 °F
Humidity 36%
Rainfall 0.00 in
Snow Depth Not available.
6:57 AM 5:47 PM
Waxing Crescent, 22% visible
METAR KLRF 121658Z AUTO 33009KT 10SM CLR 12/M02 A3027 RMK AO2 SLP254 T01171020

10-Day Weather Forecast

Almanac

Astronomy

Feb. 12, 2016 Rise Set
Actual Time
Civil Twilight
Nautical Twilight
Astronomical Twilight
Moon
Length of Visible Light
Length of Day
Tomorrow will be .
, % of the Moon is Illuminated

Today's Extremes

State Highs State Lows

Community

WunderPhotos

Upload Photos

1,892,359 photos uploaded!

WunderBlog® & News

Nearby

Air Quality

  Air Quality AQ Index Pollutant
Not available.

Snow Depth

Station Depth Elevation

Earthquake Activity

City Distance Mag. Time & Date
Minimum magnitude displayed is 2.5.

Coastal Water Temperatures

Place Temperature

Stations

Nearby Weather Stations

Station Location Temp. Windchill Dew Point Humidity Wind Precip. Elev Updated Type
                   

Watches & Warnings

There are currently no watches in effect.